Time,TemperatureF,DewpointF,PressureIn,WindDirection,WindDirectionDegrees,WindSpeedMPH,WindSpeedGustMPH,Humidity,HourlyPrecipIn,Conditions,Clouds,dailyrainin,SoftwareType,DateUTC
2013-08-25 00:00:00,61.5,58.9,31.01,SW,229,0.0,0.0,91,0.00,,---,0.00,VWS V14.01,2013-08-25 04:00:00,
2013-08-25 00:01:00,61.3,59.0,31.01,SW,229,0.0,0.0,92,0.00,,---,0.00,VWS V14.01,2013-08-25 04:01:00,
2013-08-25 00:02:00,61.3,59.0,31.01,SW,229,0.0,2.2,92,0.00,,---,0.00,VWS V14.01,2013-08-25 04:02:00,
2013-08-25 00:07:00,61.3,59.0,31.01,SW,229,0.0,0.0,92,0.00,,---,0.00,VWS V14.01,2013-08-25 04:07:00,
2013-08-25 00:12:00,61.3,59.0,31.01,SW,229,0.0,0.0,92,0.00,,---,0.00,VWS V14.01,2013-08-25 04:12:00,
2013-08-25 00:17:00,61.3,59.0,31.01,SW,229,2.2,2.2,92,0.00,,---,0.00,VWS V14.01,2013-08-25 04:17:00,
2013-08-25 00:22:00,61.3,59.0,31.01,SW,229,0.0,0.0,92,0.00,,---,0.00,VWS V14.01,2013-08-25 04:22:00,
2013-08-25 00:27:00,61.2,58.8,31.01,SW,229,0.0,0.0,92,0.00,,---,0.00,VWS V14.01,2013-08-25 04:27:00,
2013-08-25 00:32:00,61.0,58.6,31.01,SW,229,0.0,2.7,92,0.00,,---,0.00,VWS V14.01,2013-08-25 04:32:00,
2013-08-25 00:37:00,61.0,58.6,31.01,SW,229,0.0,0.0,92,0.00,,---,0.00,VWS V14.01,2013-08-25 04:37:00,
2013-08-25 00:42:00,61.0,58.6,31.01,SW,229,2.2,2.2,92,0.00,,---,0.00,VWS V14.01,2013-08-25 04:42:00,
2013-08-25 00:47:00,61.0,59.0,31.01,SW,229,0.0,0.0,93,0.00,,---,0.00,VWS V14.01,2013-08-25 04:47:00,
2013-08-25 00:52:00,60.8,58.5,31.01,SW,229,0.0,0.0,92,0.00,,---,0.00,VWS V14.01,2013-08-25 04:52:00,
2013-08-25 00:57:00,60.8,58.8,31.01,SW,229,0.0,0.0,93,0.00,,---,0.00,VWS V14.01,2013-08-25 04:57:00,
2013-08-25 01:02:00,60.6,58.6,31.01,SW,231,2.7,2.7,93,0.00,,---,0.00,VWS V14.01,2013-08-25 05:02:00,
2013-08-25 01:07:00,60.6,58.6,31.01,SW,227,3.1,3.1,93,0.00,,---,0.00,VWS V14.01,2013-08-25 05:07:00,
2013-08-25 01:12:00,60.6,58.6,31.01,SW,227,0.0,0.0,93,0.00,,---,0.00,VWS V14.01,2013-08-25 05:12:00,
2013-08-25 01:17:00,60.6,58.6,31.01,SW,227,0.0,2.2,93,0.00,,---,0.00,VWS V14.01,2013-08-25 05:17:00,
2013-08-25 01:22:00,60.6,58.6,31.01,SW,227,0.0,0.0,93,0.00,,---,0.00,VWS V14.01,2013-08-25 05:22:00,
2013-08-25 01:27:00,60.4,58.4,31.01,SW,227,0.0,0.0,93,0.00,,---,0.00,VWS V14.01,2013-08-25 05:27:00,
2013-08-25 01:32:00,60.4,58.1,31.01,SW,227,0.0,0.0,92,0.00,,---,0.00,VWS V14.01,2013-08-25 05:32:00,
2013-08-25 01:37:00,60.3,57.9,31.01,SW,227,0.0,0.0,92,0.00,,---,0.00,VWS V14.01,2013-08-25 05:37:00,
2013-08-25 01:42:00,60.1,57.8,31.01,SW,227,0.0,0.0,92,0.00,,---,0.00,VWS V14.01,2013-08-25 05:42:00,
2013-08-25 01:47:00,60.1,57.8,31.01,SW,233,0.0,0.0,92,0.00,,---,0.00,VWS V14.01,2013-08-25 05:47:00,
2013-08-25 01:52:00,59.9,57.9,31.01,SW,233,0.0,0.0,93,0.00,,---,0.00,VWS V14.01,2013-08-25 05:52:00,
2013-08-25 01:57:00,59.9,57.9,31.01,SW,233,0.0,0.0,93,0.00,,---,0.00,VWS V14.01,2013-08-25 05:57:00,
2013-08-25 02:02:00,59.7,57.4,31.01,SW,233,0.0,0.0,92,0.00,,---,0.00,VWS V14.01,2013-08-25 06:02:00,
2013-08-25 02:07:00,59.7,57.4,31.01,SW,233,0.0,0.0,92,0.00,,---,0.00,VWS V14.01,2013-08-25 06:07:00,
2013-08-25 02:12:00,59.5,57.2,31.01,SW,233,0.0,0.0,92,0.00,,---,0.00,VWS V14.01,2013-08-25 06:12:00,
2013-08-25 02:17:00,59.5,57.2,31.01,SW,233,0.0,0.0,92,0.00,,---,0.00,VWS V14.01,2013-08-25 06:17:00,
2013-08-25 02:22:00,59.5,57.2,31.01,SW,233,2.2,2.2,92,0.00,,---,0.00,VWS V14.01,2013-08-25 06:22:00,
2013-08-25 02:27:00,59.4,57.0,31.01,SW,233,0.0,0.0,92,0.00,,---,0.00,VWS V14.01,2013-08-25 06:27:00,
2013-08-25 02:32:00,59.5,57.2,31.01,SW,233,0.0,0.0,92,0.00,,---,0.00,VWS V14.01,2013-08-25 06:32:00,
2013-08-25 02:37:00,59.4,57.0,31.01,SW,233,0.0,0.0,92,0.00,,---,0.00,VWS V14.01,2013-08-25 06:37:00,
2013-08-25 02:42:00,59.4,56.7,31.01,SW,233,0.0,0.0,91,0.00,,---,0.00,VWS V14.01,2013-08-25 06:42:00,
2013-08-25 02:47:00,59.4,56.7,31.01,SW,233,0.0,0.0,91,0.00,,---,0.00,VWS V14.01,2013-08-25 06:47:00,
2013-08-25 02:52:00,59.4,56.7,31.01,SW,233,0.0,0.0,91,0.00,,---,0.00,VWS V14.01,2013-08-25 06:52:00,
2013-08-25 02:57:00,59.4,57.0,31.01,SW,233,0.0,0.0,92,0.00,,---,0.00,VWS V14.01,2013-08-25 06:57:00,
2013-08-25 03:02:00,59.2,56.9,31.01,SW,233,0.0,0.0,92,0.00,,---,0.00,VWS V14.01,2013-08-25 07:02:00,
2013-08-25 03:07:00,59.2,56.9,31.01,SW,233,0.0,0.0,92,0.00,,---,0.00,VWS V14.01,2013-08-25 07:07:00,
2013-08-25 03:12:00,59.0,56.7,31.01,SW,233,0.0,0.0,92,0.00,,---,0.00,VWS V14.01,2013-08-25 07:12:00,
2013-08-25 03:17:00,58.8,56.5,31.01,SW,233,0.0,0.0,92,0.00,,---,0.00,VWS V14.01,2013-08-25 07:17:00,
2013-08-25 03:22:00,58.8,56.8,31.01,SW,233,0.0,0.0,93,0.00,,---,0.00,VWS V14.01,2013-08-25 07:22:00,
2013-08-25 03:27:00,58.8,56.8,31.01,SW,233,0.0,0.0,93,0.00,,---,0.00,VWS V14.01,2013-08-25 07:27:00,
2013-08-25 03:32:00,58.8,57.1,31.01,SW,233,0.0,0.0,94,0.00,,---,0.00,VWS V14.01,2013-08-25 07:32:00,
2013-08-25 03:37:00,58.6,56.6,31.01,SW,233,0.0,0.0,93,0.00,,---,0.00,VWS V14.01,2013-08-25 07:37:00,
2013-08-25 03:42:00,58.6,56.6,31.01,SW,233,0.0,0.0,93,0.00,,---,0.00,VWS V14.01,2013-08-25 07:42:00,
2013-08-25 03:47:00,58.6,56.6,31.01,SW,233,0.0,0.0,93,0.00,,---,0.00,VWS V14.01,2013-08-25 07:47:00,
2013-08-25 03:52:00,58.5,56.5,31.01,SW,233,0.0,0.0,93,0.00,,---,0.00,VWS V14.01,2013-08-25 07:52:00,
2013-08-25 03:57:00,58.5,56.5,31.01,SW,233,0.0,0.0,93,0.00,,---,0.00,VWS V14.01,2013-08-25 07:57:00,
2013-08-25 04:02:00,58.3,56.3,31.01,SW,233,0.0,0.0,93,0.00,,---,0.00,VWS V14.01,2013-08-25 08:02:00,
2013-08-25 04:07:00,58.3,56.3,31.01,SW,233,0.0,0.0,93,0.00,,---,0.00,VWS V14.01,2013-08-25 08:07:00,
2013-08-25 04:12:00,58.3,56.6,31.01,SW,233,0.0,0.0,94,0.00,,---,0.00,VWS V14.01,2013-08-25 08:12:00,
2013-08-25 04:17:00,58.3,56.3,31.01,SW,233,0.0,0.0,93,0.00,,---,0.00,VWS V14.01,2013-08-25 08:17:00,
2013-08-25 04:22:00,58.3,56.3,31.01,SW,233,0.0,0.0,93,0.00,,---,0.00,VWS V14.01,2013-08-25 08:22:00,
2013-08-25 04:27:00,58.1,56.1,31.01,SW,233,0.0,0.0,93,0.00,,---,0.00,VWS V14.01,2013-08-25 08:27:00,
2013-08-25 04:32:00,58.1,56.1,31.01,SW,233,0.0,0.0,93,0.00,,---,0.00,VWS V14.01,2013-08-25 08:32:00,
2013-08-25 04:37:00,58.1,56.4,31.01,SW,233,0.0,0.0,94,0.00,,---,0.00,VWS V14.01,2013-08-25 08:37:00,
2013-08-25 04:42:00,57.9,56.5,31.01,SW,233,0.0,0.0,95,0.00,,---,0.00,VWS V14.01,2013-08-25 08:42:00,
2013-08-25 04:47:00,57.9,56.8,31.01,SW,233,0.0,0.0,96,0.00,,---,0.00,VWS V14.01,2013-08-25 08:47:00,
2013-08-25 04:52:00,57.9,57.1,31.01,SW,233,0.0,0.0,97,0.00,,---,0.00,VWS V14.01,2013-08-25 08:52:00,
2013-08-25 04:57:00,57.7,57.2,31.01,SW,233,0.0,0.0,98,0.00,,---,0.00,VWS V14.01,2013-08-25 08:57:00,
2013-08-25 05:02:00,57.7,57.2,31.01,SW,233,0.0,0.0,98,0.00,,---,0.00,VWS V14.01,2013-08-25 09:02:00,
2013-08-25 05:07:00,57.6,57.0,31.01,SW,233,0.0,0.0,98,0.00,,---,0.00,VWS V14.01,2013-08-25 09:07:00,
2013-08-25 05:12:00,57.6,57.0,31.01,SW,233,0.0,0.0,98,0.00,,---,0.00,VWS V14.01,2013-08-25 09:12:00,
2013-08-25 05:17:00,57.6,57.0,31.01,SW,233,0.0,0.0,98,0.00,,---,0.00,VWS V14.01,2013-08-25 09:17:00,
2013-08-25 05:22:00,57.6,57.0,31.01,SW,233,0.0,0.0,98,0.00,,---,0.00,VWS V14.01,2013-08-25 09:22:00,
2013-08-25 05:27:00,57.6,57.0,31.01,SW,233,0.0,0.0,98,0.00,,---,0.00,VWS V14.01,2013-08-25 09:27:00,
2013-08-25 05:32:00,57.6,57.0,31.01,SW,233,0.0,0.0,98,0.00,,---,0.00,VWS V14.01,2013-08-25 09:32:00,
2013-08-25 05:37:00,57.6,57.0,31.01,SW,233,0.0,0.0,98,0.00,,---,0.00,VWS V14.01,2013-08-25 09:37:00,
2013-08-25 05:42:00,57.4,56.8,31.01,SW,233,0.0,0.0,98,0.00,,---,0.00,VWS V14.01,2013-08-25 09:42:00,
2013-08-25 05:47:00,57.4,56.8,31.01,SW,233,0.0,0.0,98,0.00,,---,0.00,VWS V14.01,2013-08-25 09:47:00,
2013-08-25 05:52:00,57.2,56.6,31.01,SW,233,0.0,0.0,98,0.00,,---,0.00,VWS V14.01,2013-08-25 09:52:00,
2013-08-25 05:57:00,57.2,56.6,31.01,SW,233,0.0,0.0,98,0.00,,---,0.00,VWS V14.01,2013-08-25 09:57:00,
2013-08-25 06:02:00,57.2,56.6,31.01,SW,233,0.0,0.0,98,0.00,,---,0.00,VWS V14.01,2013-08-25 10:02:00,
2013-08-25 06:07:00,57.2,56.6,31.01,SW,233,0.0,0.0,98,0.00,,---,0.00,VWS V14.01,2013-08-25 10:07:00,
2013-08-25 06:12:00,57.0,56.5,31.01,SW,233,0.0,0.0,98,0.00,,---,0.00,VWS V14.01,2013-08-25 10:12:00,
2013-08-25 06:17:00,57.0,56.5,31.01,SW,233,0.0,0.0,98,0.00,,---,0.00,VWS V14.01,2013-08-25 10:17:00,
2013-08-25 06:22:00,56.8,56.3,31.01,SW,233,0.0,0.0,98,0.00,,---,0.00,VWS V14.01,2013-08-25 10:22:00,
2013-08-25 06:27:00,56.7,56.1,31.01,SW,233,0.0,0.0,98,0.00,,---,0.00,VWS V14.01,2013-08-25 10:27:00,
2013-08-25 06:32:00,56.7,56.1,31.01,SW,233,0.0,0.0,98,0.00,,---,0.00,VWS V14.01,2013-08-25 10:32:00,
2013-08-25 06:37:00,56.7,56.1,31.01,SW,233,0.0,0.0,98,0.00,,---,0.00,VWS V14.01,2013-08-25 10:37:00,
2013-08-25 06:42:00,56.5,55.9,31.01,SW,233,0.0,0.0,98,0.00,,---,0.00,VWS V14.01,2013-08-25 10:42:00,
2013-08-25 06:47:00,56.5,55.9,31.01,SW,233,0.0,0.0,98,0.00,,---,0.00,VWS V14.01,2013-08-25 10:47:00,
2013-08-25 06:52:00,56.3,55.8,31.01,SW,233,0.0,0.0,98,0.00,,---,0.00,VWS V14.01,2013-08-25 10:52:00,
2013-08-25 06:57:00,56.3,55.8,31.01,SW,233,0.0,0.0,98,0.00,,---,0.00,VWS V14.01,2013-08-25 10:57:00,
2013-08-25 07:02:00,56.3,55.8,31.01,SW,233,0.0,0.0,98,0.00,,---,0.00,VWS V14.01,2013-08-25 11:02:00,
2013-08-25 07:07:00,56.3,55.8,31.01,SW,233,0.0,0.0,98,0.00,,---,0.00,VWS V14.01,2013-08-25 11:07:00,
2013-08-25 07:12:00,56.3,55.8,31.01,SW,233,0.0,0.0,98,0.00,,---,0.00,VWS V14.01,2013-08-25 11:12:00,
2013-08-25 07:17:00,56.3,55.8,31.01,SW,233,0.0,0.0,98,0.00,,---,0.00,VWS V14.01,2013-08-25 11:17:00,
2013-08-25 07:22:00,56.3,55.8,31.01,SW,233,0.0,0.0,98,0.00,,---,0.00,VWS V14.01,2013-08-25 11:22:00,
2013-08-25 07:27:00,56.3,55.8,31.01,SW,233,0.0,0.0,98,0.00,,---,0.00,VWS V14.01,2013-08-25 11:27:00,
2013-08-25 07:32:00,56.5,55.9,31.01,SW,233,0.0,0.0,98,0.00,,---,0.00,VWS V14.01,2013-08-25 11:32:00,
2013-08-25 07:37:00,56.5,55.9,31.01,SW,233,0.0,0.0,98,0.00,,---,0.00,VWS V14.01,2013-08-25 11:37:00,
2013-08-25 07:42:00,56.7,56.1,31.01,SW,233,0.0,0.0,98,0.00,,---,0.00,VWS V14.01,2013-08-25 11:42:00,
2013-08-25 07:47:00,56.7,56.1,31.01,SW,233,0.0,0.0,98,0.00,,---,0.00,VWS V14.01,2013-08-25 11:47:00,
2013-08-25 07:52:00,56.8,56.3,31.01,SW,233,0.0,0.0,98,0.00,,---,0.00,VWS V14.01,2013-08-25 11:52:00,
2013-08-25 07:57:00,56.8,56.3,31.01,SW,234,0.0,0.0,98,0.00,,---,0.00,VWS V14.01,2013-08-25 11:57:00,
2013-08-25 08:02:00,57.0,56.5,31.01,SW,233,0.0,0.0,98,0.00,,---,0.00,VWS V14.01,2013-08-25 12:02:00,
2013-08-25 08:07:00,57.2,56.6,31.01,SW,233,0.0,0.0,98,0.00,,---,0.00,VWS V14.01,2013-08-25 12:07:00,
2013-08-25 08:12:00,57.2,56.6,31.01,SW,233,0.0,0.0,98,0.00,,---,0.00,VWS V14.01,2013-08-25 12:12:00,
2013-08-25 08:17:00,57.4,56.8,31.01,SW,233,0.0,0.0,98,0.00,,---,0.00,VWS V14.01,2013-08-25 12:17:00,
2013-08-25 08:22:00,57.7,57.2,31.01,SW,233,0.0,0.0,98,0.00,,---,0.00,VWS V14.01,2013-08-25 12:22:00,
2013-08-25 08:27:00,57.9,57.4,31.01,SW,233,0.0,0.0,98,0.00,,---,0.00,VWS V14.01,2013-08-25 12:27:00,
2013-08-25 08:32:00,58.1,57.5,31.01,SW,233,0.0,0.0,98,0.00,,---,0.00,VWS V14.01,2013-08-25 12:32:00,
2013-08-25 08:37:00,58.3,57.7,31.01,SW,233,0.0,0.0,98,0.00,,---,0.00,VWS V14.01,2013-08-25 12:37:00,
2013-08-25 08:42:00,58.5,57.9,31.01,SW,233,0.0,0.0,98,0.00,,---,0.00,VWS V14.01,2013-08-25 12:42:00,
2013-08-25 08:46:00,58.8,58.3,31.01,SW,233,0.0,0.0,98,0.00,,---,0.00,VWS V14.01,2013-08-25 12:46:00,
2013-08-25 08:52:00,59.7,59.2,31.01,SW,233,0.0,0.0,98,0.00,,---,0.00,VWS V14.01,2013-08-25 12:52:00,
2013-08-25 08:57:00,59.7,59.2,31.01,SW,233,0.0,0.0,98,0.00,,---,0.00,VWS V14.01,2013-08-25 12:57:00,
2013-08-25 09:02:00,61.7,61.1,31.01,SW,233,0.0,0.0,98,0.00,,---,0.00,VWS V14.01,2013-08-25 13:02:00,
2013-08-25 09:06:00,63.5,62.9,31.01,SW,233,0.0,0.0,98,0.00,,---,0.00,VWS V14.01,2013-08-25 13:06:00,
2013-08-25 09:11:00,65.1,64.5,31.01,SW,233,0.0,0.0,98,0.00,,---,0.00,VWS V14.01,2013-08-25 13:11:00,
2013-08-25 09:16:00,64.4,63.8,31.01,SW,233,0.0,0.0,98,0.00,,---,0.00,VWS V14.01,2013-08-25 13:16:00,
2013-08-25 09:21:00,64.4,63.8,31.01,SW,233,0.0,0.0,98,0.00,,---,0.00,VWS V14.01,2013-08-25 13:21:00,
2013-08-25 09:26:00,65.1,64.5,31.01,SW,233,0.0,0.0,98,0.00,,---,0.00,VWS V14.01,2013-08-25 13:26:00,
2013-08-25 09:31:00,67.3,66.7,31.01,SW,233,0.0,0.0,98,0.00,,---,0.00,VWS V14.01,2013-08-25 13:31:00,
2013-08-25 09:36:00,68.0,67.1,31.01,SW,233,2.7,2.7,97,0.00,,---,0.00,VWS V14.01,2013-08-25 13:36:00,
2013-08-25 09:41:00,68.0,66.2,31.01,ENE,60,0.0,2.2,94,0.00,,---,0.00,VWS V14.01,2013-08-25 13:41:00,
2013-08-25 09:46:00,68.2,64.8,31.01,SE,142,0.0,0.0,89,0.00,,---,0.00,VWS V14.01,2013-08-25 13:46:00,
2013-08-25 09:51:00,68.4,64.3,31.01,SE,129,0.0,2.2,87,0.00,,---,0.00,VWS V14.01,2013-08-25 13:51:00,
2013-08-25 09:56:00,68.7,64.4,31.01,SE,128,2.7,2.7,86,0.00,,---,0.00,VWS V14.01,2013-08-25 13:56:00,
2013-08-25 10:01:00,68.7,63.3,31.01,South,189,0.0,0.0,83,0.00,,---,0.00,VWS V14.01,2013-08-25 14:01:00,
2013-08-25 10:06:00,69.1,63.4,31.01,South,189,0.0,0.0,82,0.00,,---,0.00,VWS V14.01,2013-08-25 14:06:00,
2013-08-25 10:11:00,69.6,63.9,31.01,South,188,2.2,3.1,82,0.00,,---,0.00,VWS V14.01,2013-08-25 14:11:00,
2013-08-25 10:16:00,70.0,63.2,31.01,South,181,2.7,3.1,79,0.00,,---,0.00,VWS V14.01,2013-08-25 14:16:00,
2013-08-25 10:21:00,70.3,62.4,31.01,ENE,76,2.2,2.2,76,0.00,,---,0.00,VWS V14.01,2013-08-25 14:21:00,
2013-08-25 10:26:00,70.7,62.4,31.01,ESE,114,2.2,4.0,75,0.00,,---,0.00,VWS V14.01,2013-08-25 14:26:00,
2013-08-25 10:31:00,71.1,61.6,31.01,SE,126,0.0,0.0,72,0.00,,---,0.00,VWS V14.01,2013-08-25 14:31:00,
2013-08-25 10:36:00,71.4,61.9,31.01,ESE,117,2.7,2.7,72,0.00,,---,0.00,VWS V14.01,2013-08-25 14:36:00,
2013-08-25 10:41:00,71.6,60.9,31.01,ESE,117,0.0,0.0,69,0.00,,---,0.00,VWS V14.01,2013-08-25 14:41:00,
2013-08-25 10:46:00,72.3,61.6,31.01,ESE,111,0.0,2.2,69,0.00,,---,0.00,VWS V14.01,2013-08-25 14:46:00,
2013-08-25 10:51:00,72.5,60.1,31.01,NNE,22,2.2,3.6,65,0.00,,---,0.00,VWS V14.01,2013-08-25 14:51:00,
2013-08-25 10:56:00,72.9,60.0,31.01,East,92,0.0,0.0,64,0.00,,---,0.00,VWS V14.01,2013-08-25 14:56:00,
2013-08-25 11:01:00,73.2,59.9,31.01,ENE,76,5.4,5.8,63,0.00,,---,0.00,VWS V14.01,2013-08-25 15:01:00,
2013-08-25 11:06:00,73.2,57.6,31.01,NE,50,2.7,3.6,58,0.00,,---,0.00,VWS V14.01,2013-08-25 15:06:00,
2013-08-25 11:11:00,73.6,57.4,31.01,NE,50,2.7,3.1,57,0.00,,---,0.00,VWS V14.01,2013-08-25 15:11:00,
2013-08-25 11:16:00,73.6,57.4,31.01,ESE,109,5.8,5.8,57,0.00,,---,0.00,VWS V14.01,2013-08-25 15:16:00,
2013-08-25 11:21:00,73.9,57.8,31.01,ENE,61,0.0,0.0,57,0.00,,---,0.00,VWS V14.01,2013-08-25 15:21:00,
2013-08-25 11:26:00,74.3,58.1,31.01,SE,132,2.7,3.6,57,0.00,,---,0.00,VWS V14.01,2013-08-25 15:26:00,
2013-08-25 11:31:00,74.1,56.9,31.01,East,91,0.0,3.1,55,0.00,,---,0.00,VWS V14.01,2013-08-25 15:31:00,
2013-08-25 11:36:00,74.5,57.8,31.01,East,91,3.1,3.6,56,0.00,,---,0.00,VWS V14.01,2013-08-25 15:36:00,
2013-08-25 11:41:00,74.8,57.6,31.01,NE,47,3.6,4.0,55,0.00,,---,0.00,VWS V14.01,2013-08-25 15:41:00,
2013-08-25 11:46:00,75.2,57.4,31.01,SSE,150,2.7,3.6,54,0.00,,---,0.00,VWS V14.01,2013-08-25 15:46:00,
2013-08-25 11:51:00,75.4,57.6,31.01,NE,50,4.0,4.9,54,0.00,,---,0.00,VWS V14.01,2013-08-25 15:51:00,
2013-08-25 11:56:00,75.4,57.6,31.01,NE,52,2.2,2.2,54,0.00,,---,0.00,VWS V14.01,2013-08-25 15:56:00,
2013-08-25 12:01:00,75.4,57.6,31.01,ENE,65,0.0,2.7,54,0.00,,---,0.00,VWS V14.01,2013-08-25 16:01:00,
2013-08-25 12:06:00,75.7,58.4,31.01,ENE,71,3.1,4.0,55,0.00,,---,0.00,VWS V14.01,2013-08-25 16:06:00,
2013-08-25 12:11:00,75.6,57.2,31.01,East,80,2.7,4.0,53,0.00,,---,0.00,VWS V14.01,2013-08-25 16:11:00,
2013-08-25 12:16:00,75.6,57.2,31.01,ESE,116,3.1,4.0,53,0.00,,---,0.00,VWS V14.01,2013-08-25 16:16:00,
2013-08-25 12:21:00,75.7,57.9,31.01,ESE,115,0.0,0.0,54,0.00,,---,0.00,VWS V14.01,2013-08-25 16:21:00,
2013-08-25 12:26:00,76.3,59.5,31.01,ESE,102,4.0,4.0,56,0.00,,---,0.00,VWS V14.01,2013-08-25 16:26:00,
2013-08-25 12:31:00,76.6,59.8,31.01,SE,131,6.3,6.3,56,0.00,,---,0.00,VWS V14.01,2013-08-25 16:31:00,
2013-08-25 12:36:00,76.8,58.9,31.01,East,90,4.0,4.0,54,0.00,,---,0.00,VWS V14.01,2013-08-25 16:36:00,
2013-08-25 12:41:00,76.8,58.4,31.01,South,191,2.2,2.7,53,0.00,,---,0.00,VWS V14.01,2013-08-25 16:41:00,
2013-08-25 12:46:00,76.8,57.9,31.01,West,261,2.7,2.7,52,0.00,,---,0.00,VWS V14.01,2013-08-25 16:46:00,
2013-08-25 12:51:00,76.8,57.3,31.01,East,84,0.0,2.2,51,0.00,,---,0.00,VWS V14.01,2013-08-25 16:51:00,
2013-08-25 12:56:00,77.2,58.2,31.01,SSE,149,3.6,3.6,52,0.00,,---,0.00,VWS V14.01,2013-08-25 16:56:00,
2013-08-25 13:01:00,78.3,59.2,31.01,East,87,2.7,2.7,52,0.00,,---,0.00,VWS V14.01,2013-08-25 17:01:00,
2013-08-25 13:06:00,78.6,58.4,31.01,East,88,0.0,0.0,50,0.00,,---,0.00,VWS V14.01,2013-08-25 17:06:00,
2013-08-25 13:11:00,78.4,58.8,31.01,East,88,3.1,3.1,51,0.00,,---,0.00,VWS V14.01,2013-08-25 17:11:00,
2013-08-25 13:16:00,77.2,58.2,31.01,East,88,0.0,2.2,52,0.00,,---,0.00,VWS V14.01,2013-08-25 17:16:00,
2013-08-25 13:21:00,76.5,59.1,31.01,East,88,0.0,2.2,55,0.00,,---,0.00,VWS V14.01,2013-08-25 17:21:00,
2013-08-25 13:26:00,75.7,58.4,31.01,East,87,0.0,0.0,55,0.00,,---,0.00,VWS V14.01,2013-08-25 17:26:00,
2013-08-25 13:31:00,76.6,60.3,31.01,ESE,116,2.7,3.6,57,0.00,,---,0.00,VWS V14.01,2013-08-25 17:31:00,
2013-08-25 13:36:00,76.8,57.9,31.01,NE,51,0.0,2.2,52,0.00,,---,0.00,VWS V14.01,2013-08-25 17:36:00,
2013-08-25 13:41:00,77.7,59.2,31.01,South,188,2.7,2.7,53,0.00,,---,0.00,VWS V14.01,2013-08-25 17:41:00,
2013-08-25 13:46:00,78.3,59.2,31.01,WSW,253,2.2,2.7,52,0.00,,---,0.00,VWS V14.01,2013-08-25 17:46:00,
2013-08-25 13:51:00,79.0,59.3,31.01,SSW,204,0.0,2.7,51,0.00,,---,0.00,VWS V14.01,2013-08-25 17:51:00,
2013-08-25 13:56:00,80.1,60.3,31.01,East,85,3.6,5.4,51,0.00,,---,0.00,VWS V14.01,2013-08-25 17:56:00,
2013-08-25 14:01:00,80.8,60.4,31.01,East,95,3.1,3.1,50,0.00,,---,0.00,VWS V14.01,2013-08-25 18:01:00,
2013-08-25 14:06:00,80.6,58.5,31.01,SW,233,2.7,5.4,47,0.00,,---,0.00,VWS V14.01,2013-08-25 18:06:00,
2013-08-25 14:11:00,80.6,59.7,31.01,ESE,117,2.7,2.7,49,0.00,,---,0.00,VWS V14.01,2013-08-25 18:11:00,
2013-08-25 14:16:00,80.6,58.5,31.01,NE,56,4.9,4.9,47,0.00,,---,0.00,VWS V14.01,2013-08-25 18:16:00,
2013-08-25 14:21:00,80.1,58.0,31.01,ENE,63,4.0,4.0,47,0.00,,---,0.00,VWS V14.01,2013-08-25 18:21:00,
2013-08-25 14:26:00,79.9,57.9,31.01,NE,55,0.0,0.0,47,0.00,,---,0.00,VWS V14.01,2013-08-25 18:26:00,
2013-08-25 14:31:00,80.2,58.8,31.01,ENE,57,2.7,3.1,48,0.00,,---,0.00,VWS V14.01,2013-08-25 18:31:00,
2013-08-25 14:36:00,80.1,58.0,31.01,ESE,104,0.0,2.7,47,0.00,,---,0.00,VWS V14.01,2013-08-25 18:36:00,
2013-08-25 14:41:00,80.2,57.6,31.01,ESE,103,3.6,3.6,46,0.00,,---,0.00,VWS V14.01,2013-08-25 18:41:00,
2013-08-25 14:46:00,80.2,55.7,31.01,East,94,2.7,2.7,43,0.00,,---,0.00,VWS V14.01,2013-08-25 18:46:00,
2013-08-25 14:51:00,80.6,57.9,31.01,SE,129,2.7,2.7,46,0.00,,---,0.00,VWS V14.01,2013-08-25 18:51:00,
2013-08-25 14:56:00,81.1,59.0,31.01,East,86,2.7,3.1,47,0.00,,---,0.00,VWS V14.01,2013-08-25 18:56:00,
2013-08-25 15:01:00,81.3,59.8,31.01,SE,137,2.7,3.1,48,0.00,,---,0.00,VWS V14.01,2013-08-25 19:01:00,
2013-08-25 15:06:00,81.5,59.3,31.01,ENE,72,3.6,3.6,47,0.00,,---,0.00,VWS V14.01,2013-08-25 19:06:00,
2013-08-25 15:11:00,81.3,58.6,31.01,East,87,2.7,4.0,46,0.00,,---,0.00,VWS V14.01,2013-08-25 19:11:00,
2013-08-25 15:16:00,80.4,57.8,31.01,West,280,0.0,3.1,46,0.00,,---,0.00,VWS V14.01,2013-08-25 19:16:00,
2013-08-25 15:21:00,80.4,58.4,31.01,East,97,3.6,3.6,47,0.00,,---,0.00,VWS V14.01,2013-08-25 19:21:00,
2013-08-25 15:26:00,80.2,57.6,31.01,East,98,3.1,3.1,46,0.00,,---,0.00,VWS V14.01,2013-08-25 19:26:00,
2013-08-25 15:31:00,80.2,58.2,31.01,NE,55,0.0,2.7,47,0.00,,---,0.00,VWS V14.01,2013-08-25 19:31:00,
2013-08-25 15:36:00,80.1,57.4,31.01,East,81,0.0,0.0,46,0.00,,---,0.00,VWS V14.01,2013-08-25 19:36:00,
2013-08-25 15:41:00,80.1,58.6,31.01,East,91,3.1,3.1,48,0.00,,---,0.00,VWS V14.01,2013-08-25 19:41:00,
2013-08-25 15:46:00,79.5,58.7,31.01,SE,129,3.1,3.6,49,0.00,,---,0.00,VWS V14.01,2013-08-25 19:46:00,
2013-08-25 15:51:00,79.5,58.7,31.01,SE,127,0.0,2.2,49,0.00,,---,0.00,VWS V14.01,2013-08-25 19:51:00,
2013-08-25 15:56:00,79.5,58.7,31.01,ENE,76,0.0,0.0,49,0.00,,---,0.00,VWS V14.01,2013-08-25 19:56:00,
2013-08-25 16:01:00,79.3,59.1,31.01,ESE,102,3.6,3.6,50,0.00,,---,0.00,VWS V14.01,2013-08-25 20:01:00,
2013-08-25 16:06:00,79.2,58.9,31.01,East,93,2.7,3.6,50,0.00,,---,0.00,VWS V14.01,2013-08-25 20:06:00,
2013-08-25 16:11:00,79.0,58.2,31.01,SE,137,2.7,2.7,49,0.00,,---,0.00,VWS V14.01,2013-08-25 20:11:00,
2013-08-25 16:16:00,78.6,59.0,31.01,WSW,258,2.2,2.7,51,0.00,,---,0.00,VWS V14.01,2013-08-25 20:16:00,
2013-08-25 16:21:00,78.4,58.8,31.01,South,175,2.2,2.7,51,0.00,,---,0.00,VWS V14.01,2013-08-25 20:21:00,
2013-08-25 16:26:00,78.4,58.8,31.01,East,93,3.6,3.6,51,0.00,,---,0.00,VWS V14.01,2013-08-25 20:26:00,
2013-08-25 16:31:00,78.3,59.2,31.01,ESE,122,0.0,2.2,52,0.00,,---,0.00,VWS V14.01,2013-08-25 20:31:00,
2013-08-25 16:36:00,77.9,58.3,31.01,East,85,0.0,2.7,51,0.00,,---,0.00,VWS V14.01,2013-08-25 20:36:00,
2013-08-25 16:41:00,77.9,58.9,31.01,East,83,2.2,2.2,52,0.00,,---,0.00,VWS V14.01,2013-08-25 20:41:00,
2013-08-25 16:46:00,77.7,58.2,31.01,East,99,2.7,2.7,51,0.00,,---,0.00,VWS V14.01,2013-08-25 20:46:00,
2013-08-25 16:51:00,77.4,57.3,31.01,NE,37,2.7,3.6,50,0.00,,---,0.00,VWS V14.01,2013-08-25 20:51:00,
2013-08-25 16:56:00,77.2,57.7,31.01,ESE,114,2.7,2.7,51,0.00,,---,0.00,VWS V14.01,2013-08-25 20:56:00,
2013-08-25 17:01:00,77.0,57.5,31.01,East,92,0.0,0.0,51,0.00,,---,0.00,VWS V14.01,2013-08-25 21:01:00,
2013-08-25 17:06:00,76.6,58.2,31.01,SSW,210,2.7,2.7,53,0.00,,---,0.00,VWS V14.01,2013-08-25 21:06:00,
2013-08-25 17:11:00,76.5,59.1,31.01,West,271,2.7,2.7,55,0.00,,---,0.00,VWS V14.01,2013-08-25 21:11:00,
2013-08-25 17:16:00,76.3,58.9,31.01,ESE,107,0.0,2.7,55,0.00,,---,0.00,VWS V14.01,2013-08-25 21:16:00,
2013-08-25 17:21:00,76.1,59.3,31.01,ESE,107,0.0,0.0,56,0.00,,---,0.00,VWS V14.01,2013-08-25 21:21:00,
2013-08-25 17:26:00,75.7,59.9,31.01,ESE,107,0.0,2.2,58,0.00,,---,0.00,VWS V14.01,2013-08-25 21:26:00,
2013-08-25 17:31:00,75.6,59.3,31.01,ESE,107,0.0,0.0,57,0.00,,---,0.00,VWS V14.01,2013-08-25 21:31:00,
2013-08-25 17:36:00,75.2,59.4,31.01,ESE,107,0.0,0.0,58,0.00,,---,0.00,VWS V14.01,2013-08-25 21:36:00,
2013-08-25 17:41:00,75.0,59.7,31.01,ESE,107,0.0,2.2,59,0.00,,---,0.00,VWS V14.01,2013-08-25 21:41:00,
2013-08-25 17:46:00,74.5,59.7,31.01,ESE,107,0.0,0.0,60,0.00,,---,0.00,VWS V14.01,2013-08-25 21:46:00,
2013-08-25 17:51:00,74.1,59.8,31.01,ESE,107,0.0,0.0,61,0.00,,---,0.00,VWS V14.01,2013-08-25 21:51:00,
2013-08-25 17:56:00,73.9,60.1,31.01,ESE,107,0.0,0.0,62,0.00,,---,0.00,VWS V14.01,2013-08-25 21:56:00,
2013-08-25 18:01:00,73.6,59.3,31.01,ESE,107,0.0,0.0,61,0.00,,---,0.00,VWS V14.01,2013-08-25 22:01:00,
2013-08-25 18:06:00,73.4,59.2,31.01,ESE,107,0.0,0.0,61,0.00,,---,0.00,VWS V14.01,2013-08-25 22:06:00,
2013-08-25 18:11:00,73.0,59.7,31.01,ESE,107,0.0,0.0,63,0.00,,---,0.00,VWS V14.01,2013-08-25 22:11:00,
2013-08-25 18:16:00,72.9,60.0,31.01,ESE,107,0.0,0.0,64,0.00,,---,0.00,VWS V14.01,2013-08-25 22:16:00,
2013-08-25 18:21:00,72.5,59.2,31.01,ESE,119,0.0,0.0,63,0.00,,---,0.00,VWS V14.01,2013-08-25 22:21:00,
2013-08-25 18:26:00,72.3,59.9,31.01,ESE,119,0.0,0.0,65,0.00,,---,0.00,VWS V14.01,2013-08-25 22:26:00,
2013-08-25 18:31:00,72.0,59.6,31.01,ESE,119,0.0,0.0,65,0.00,,---,0.00,VWS V14.01,2013-08-25 22:31:00,
2013-08-25 18:36:00,71.8,59.8,31.01,ESE,119,0.0,0.0,66,0.00,,---,0.00,VWS V14.01,2013-08-25 22:36:00,
2013-08-25 18:41:00,71.4,59.9,31.01,ESE,119,0.0,0.0,67,0.00,,---,0.00,VWS V14.01,2013-08-25 22:41:00,
2013-08-25 18:46:00,71.2,60.2,31.01,ESE,119,0.0,0.0,68,0.00,,---,0.00,VWS V14.01,2013-08-25 22:46:00,
2013-08-25 18:51:00,71.1,60.4,31.01,ESE,119,0.0,0.0,69,0.00,,---,0.00,VWS V14.01,2013-08-25 22:51:00,
2013-08-25 18:56:00,70.7,60.5,31.01,ESE,119,0.0,0.0,70,0.00,,---,0.00,VWS V14.01,2013-08-25 22:56:00,
2013-08-25 19:01:00,70.3,60.1,31.01,ESE,119,0.0,0.0,70,0.00,,---,0.00,VWS V14.01,2013-08-25 23:01:00,
2013-08-25 19:06:00,70.2,60.3,31.01,ESE,119,0.0,0.0,71,0.00,,---,0.00,VWS V14.01,2013-08-25 23:06:00,
2013-08-25 19:11:00,70.0,60.9,31.01,ESE,119,0.0,0.0,73,0.00,,---,0.00,VWS V14.01,2013-08-25 23:11:00,
2013-08-25 19:16:00,69.6,61.3,31.01,ESE,119,0.0,0.0,75,0.00,,---,0.00,VWS V14.01,2013-08-25 23:16:00,
2013-08-25 19:21:00,69.3,61.4,31.01,ESE,119,0.0,0.0,76,0.00,,---,0.00,VWS V14.01,2013-08-25 23:21:00,
2013-08-25 19:26:00,69.1,61.2,31.01,ESE,119,0.0,0.0,76,0.00,,---,0.00,VWS V14.01,2013-08-25 23:26:00,
2013-08-25 19:31:00,68.7,61.2,31.01,ESE,119,0.0,0.0,77,0.00,,---,0.00,VWS V14.01,2013-08-25 23:31:00,
2013-08-25 19:36:00,68.4,60.9,31.01,ESE,119,0.0,0.0,77,0.00,,---,0.00,VWS V14.01,2013-08-25 23:36:00,
2013-08-25 19:41:00,68.2,61.1,31.01,ESE,119,0.0,0.0,78,0.00,,---,0.00,VWS V14.01,2013-08-25 23:41:00,
2013-08-25 19:46:00,67.8,60.7,31.01,ESE,119,0.0,0.0,78,0.00,,---,0.00,VWS V14.01,2013-08-25 23:46:00,
2013-08-25 19:51:00,67.6,60.9,31.01,ESE,119,0.0,0.0,79,0.00,,---,0.00,VWS V14.01,2013-08-25 23:51:00,
2013-08-25 19:56:00,67.3,60.5,31.01,ESE,119,0.0,0.0,79,0.00,,---,0.00,VWS V14.01,2013-08-25 23:56:00,
2013-08-25 20:01:00,67.1,60.7,31.01,ESE,119,0.0,0.0,80,0.00,,---,0.00,VWS V14.01,2013-08-26 00:01:00,
2013-08-25 20:06:00,66.9,60.9,31.01,ESE,119,0.0,0.0,81,0.00,,---,0.00,VWS V14.01,2013-08-26 00:06:00,
2013-08-25 20:11:00,66.6,60.6,31.01,ESE,118,0.0,0.0,81,0.00,,---,0.00,VWS V14.01,2013-08-26 00:11:00,
2013-08-25 20:16:00,66.4,60.4,31.01,ESE,119,0.0,0.0,81,0.00,,---,0.00,VWS V14.01,2013-08-26 00:16:00,
2013-08-25 20:21:00,66.0,60.4,31.01,ESE,119,0.0,0.0,82,0.00,,---,0.00,VWS V14.01,2013-08-26 00:21:00,
2013-08-25 20:26:00,65.8,60.5,31.01,ESE,119,0.0,0.0,83,0.00,,---,0.00,VWS V14.01,2013-08-26 00:26:00,
2013-08-25 20:31:00,65.5,60.2,31.01,ESE,119,0.0,0.0,83,0.00,,---,0.00,VWS V14.01,2013-08-26 00:31:00,
2013-08-25 20:36:00,65.3,60.3,31.01,ESE,119,0.0,0.0,84,0.00,,---,0.00,VWS V14.01,2013-08-26 00:36:00,
2013-08-25 20:41:00,64.9,60.3,31.01,ESE,119,0.0,0.0,85,0.00,,---,0.00,VWS V14.01,2013-08-26 00:41:00,
2013-08-25 20:46:00,64.8,60.2,31.01,ESE,119,0.0,0.0,85,0.00,,---,0.00,VWS V14.01,2013-08-26 00:46:00,
2013-08-25 20:51:00,64.4,60.5,31.01,ESE,119,0.0,0.0,87,0.00,,---,0.00,VWS V14.01,2013-08-26 00:51:00,
2013-08-25 20:56:00,64.2,60.6,31.01,ESE,119,0.0,0.0,88,0.00,,---,0.00,VWS V14.01,2013-08-26 00:56:00,
2013-08-25 21:01:00,64.0,60.4,31.01,ESE,119,0.0,0.0,88,0.00,,---,0.00,VWS V14.01,2013-08-26 01:01:00,
2013-08-25 21:06:00,63.9,60.6,31.01,ESE,119,0.0,0.0,89,0.00,,---,0.00,VWS V14.01,2013-08-26 01:06:00,
2013-08-25 21:11:00,63.7,60.4,31.01,ESE,119,0.0,0.0,89,0.00,,---,0.00,VWS V14.01,2013-08-26 01:11:00,
2013-08-25 21:16:00,63.3,60.3,31.01,ESE,119,0.0,0.0,90,0.00,,---,0.00,VWS V14.01,2013-08-26 01:16:00,
2013-08-25 21:21:00,63.1,60.2,31.01,ESE,119,0.0,0.0,90,0.00,,---,0.00,VWS V14.01,2013-08-26 01:21:00,
2013-08-25 21:26:00,63.1,60.2,31.01,ESE,119,0.0,0.0,90,0.00,,---,0.00,VWS V14.01,2013-08-26 01:26:00,
2013-08-25 21:31:00,63.0,60.3,31.01,ESE,119,0.0,0.0,91,0.00,,---,0.00,VWS V14.01,2013-08-26 01:31:00,
2013-08-25 21:36:00,62.8,60.4,31.01,ESE,119,0.0,0.0,92,0.00,,---,0.00,VWS V14.01,2013-08-26 01:36:00,
2013-08-25 21:41:00,62.6,60.2,31.01,ESE,119,0.0,0.0,92,0.00,,---,0.00,VWS V14.01,2013-08-26 01:41:00,
2013-08-25 21:46:00,62.4,60.4,31.01,ESE,119,0.0,0.0,93,0.00,,---,0.00,VWS V14.01,2013-08-26 01:46:00,
2013-08-25 21:51:00,62.4,60.7,31.01,ESE,119,0.0,0.0,94,0.00,,---,0.00,VWS V14.01,2013-08-26 01:51:00,
2013-08-25 21:56:00,62.2,60.5,31.01,ESE,119,0.0,0.0,94,0.00,,---,0.00,VWS V14.01,2013-08-26 01:56:00,
2013-08-25 22:01:00,62.2,60.5,31.01,ESE,119,0.0,0.0,94,0.00,,---,0.00,VWS V14.01,2013-08-26 02:01:00,
2013-08-25 22:06:00,62.1,60.6,31.01,ESE,119,0.0,0.0,95,0.00,,---,0.00,VWS V14.01,2013-08-26 02:06:00,
2013-08-25 22:11:00,62.1,60.9,31.01,ESE,119,0.0,0.0,96,0.00,,---,0.00,VWS V14.01,2013-08-26 02:11:00,
2013-08-25 22:16:00,62.1,61.2,31.01,ESE,119,0.0,0.0,97,0.00,,---,0.00,VWS V14.01,2013-08-26 02:16:00,
2013-08-25 22:21:00,61.9,61.0,31.01,ESE,119,0.0,0.0,97,0.00,,---,0.00,VWS V14.01,2013-08-26 02:21:00,
2013-08-25 22:26:00,61.9,61.3,31.01,ESE,119,0.0,0.0,98,0.00,,---,0.00,VWS V14.01,2013-08-26 02:26:00,
2013-08-25 22:31:00,61.7,61.1,31.01,ESE,119,0.0,0.0,98,0.00,,---,0.00,VWS V14.01,2013-08-26 02:31:00,
2013-08-25 22:36:00,61.7,61.1,31.01,ESE,119,0.0,0.0,98,0.00,,---,0.00,VWS V14.01,2013-08-26 02:36:00,
2013-08-25 22:41:00,61.5,61.0,31.01,ESE,119,0.0,0.0,98,0.00,,---,0.00,VWS V14.01,2013-08-26 02:41:00,
2013-08-25 22:46:00,61.3,60.8,31.01,ESE,119,0.0,0.0,98,0.00,,---,0.00,VWS V14.01,2013-08-26 02:46:00,
2013-08-25 22:51:00,61.3,60.8,31.01,ESE,119,0.0,0.0,98,0.00,,---,0.00,VWS V14.01,2013-08-26 02:51:00,
2013-08-25 22:56:00,61.3,60.8,31.01,ESE,119,0.0,0.0,98,0.00,,---,0.00,VWS V14.01,2013-08-26 02:56:00,
2013-08-25 23:01:00,61.2,60.6,31.01,ESE,119,0.0,0.0,98,0.00,,---,0.00,VWS V14.01,2013-08-26 03:01:00,
2013-08-25 23:06:00,61.2,60.6,31.01,ESE,119,0.0,0.0,98,0.00,,---,0.00,VWS V14.01,2013-08-26 03:06:00,
2013-08-25 23:11:00,61.2,60.6,31.01,ESE,119,0.0,0.0,98,0.00,,---,0.00,VWS V14.01,2013-08-26 03:11:00,
2013-08-25 23:16:00,61.0,60.4,31.01,ESE,119,0.0,0.0,98,0.00,,---,0.00,VWS V14.01,2013-08-26 03:16:00,
2013-08-25 23:21:00,61.0,60.4,31.01,ESE,119,0.0,0.0,98,0.00,,---,0.00,VWS V14.01,2013-08-26 03:21:00,
2013-08-25 23:26:00,61.0,60.4,31.01,ESE,119,0.0,0.0,98,0.00,,---,0.00,VWS V14.01,2013-08-26 03:26:00,
2013-08-25 23:31:00,60.8,60.2,31.01,ESE,119,0.0,0.0,98,0.00,,---,0.00,VWS V14.01,2013-08-26 03:31:00,
2013-08-25 23:36:00,60.8,60.2,31.01,ESE,119,0.0,0.0,98,0.00,,---,0.00,VWS V14.01,2013-08-26 03:36:00,
2013-08-25 23:41:00,60.8,60.2,31.01,ESE,119,0.0,0.0,98,0.00,,---,0.00,VWS V14.01,2013-08-26 03:41:00,
2013-08-25 23:46:00,60.8,60.2,31.01,ESE,119,0.0,0.0,98,0.00,,---,0.00,VWS V14.01,2013-08-26 03:46:00,
2013-08-25 23:51:00,60.8,60.2,31.01,ESE,119,0.0,0.0,98,0.00,,---,0.00,VWS V14.01,2013-08-26 03:51:00,
2013-08-25 23:56:00,60.6,60.1,31.01,ESE,119,0.0,0.0,98,0.00,,---,0.00,VWS V14.01,2013-08-26 03:56:00,